createdAt,value
2022-10-05T00:01:30.444Z,11.7
2022-10-05T00:04:01.642Z,11.7
2022-10-05T00:06:32.291Z,11.8
2022-10-05T00:09:03.171Z,11.9
2022-10-05T00:11:32.441Z,11.9
2022-10-05T00:14:03.656Z,11.9
2022-10-05T00:16:35.416Z,11.9
2022-10-05T00:19:06.444Z,11.9
2022-10-05T00:21:37.349Z,11.7
2022-10-05T00:24:08.815Z,11.7
2022-10-05T00:26:39.788Z,11.9
2022-10-05T00:29:11.110Z,11.7
2022-10-05T00:31:44.910Z,11.5
2022-10-05T00:34:16.300Z,11.5
2022-10-05T00:36:49.771Z,11.6
2022-10-05T00:39:20.656Z,11.4
2022-10-05T00:41:51.330Z,11.5
2022-10-05T00:44:22.809Z,11.5
2022-10-05T00:46:54.843Z,11.5
2022-10-05T00:49:26.154Z,11.4
2022-10-05T00:51:57.280Z,11.3
2022-10-05T00:54:28.874Z,11.3
2022-10-05T00:56:59.901Z,11.3
2022-10-05T00:59:30.698Z,11.4
2022-10-05T01:02:02.226Z,11.4
2022-10-05T01:04:33.574Z,11.4
2022-10-05T01:07:06.660Z,11.4
2022-10-05T01:09:38.888Z,11.4
2022-10-05T01:12:11.344Z,11.4
2022-10-05T01:14:43.230Z,11.3
2022-10-05T01:17:14.415Z,11.3
2022-10-05T01:19:45.692Z,11.1
2022-10-05T01:22:16.684Z,11.3
2022-10-05T01:24:47.893Z,11.2
2022-10-05T01:27:19.039Z,11.1
2022-10-05T01:29:51.670Z,11
2022-10-05T01:32:23.411Z,11.2
2022-10-05T01:34:56.348Z,11.1
2022-10-05T01:37:27.405Z,11.1
2022-10-05T01:39:58.395Z,11.1
2022-10-05T01:42:30.156Z,11.1
2022-10-05T01:45:06.126Z,11.1
2022-10-05T01:47:37.044Z,11.1
2022-10-05T01:50:08.517Z,11
2022-10-05T01:52:39.618Z,11.1
2022-10-05T01:55:10.421Z,11
2022-10-05T01:57:42.028Z,11
2022-10-05T02:00:13.747Z,11.1
2022-10-05T02:02:44.562Z,11.1
2022-10-05T02:05:15.544Z,11.1
2022-10-05T02:07:46.781Z,11.1
2022-10-05T02:10:17.804Z,11.1
2022-10-05T02:12:49.305Z,11
2022-10-05T02:15:19.314Z,11.1
2022-10-05T02:17:50.910Z,11
2022-10-05T02:20:22.544Z,11
2022-10-05T02:22:53.816Z,11
2022-10-05T02:25:24.784Z,11
2022-10-05T02:27:56.622Z,11
2022-10-05T02:30:27.284Z,11
2022-10-05T02:32:58.320Z,10.9
2022-10-05T02:35:29.120Z,10.9
2022-10-05T02:37:59.750Z,11
2022-10-05T02:40:29.912Z,11
2022-10-05T02:43:01.035Z,11
2022-10-05T02:45:32.657Z,11
2022-10-05T02:48:02.119Z,11
2022-10-05T02:50:34.197Z,10.9
2022-10-05T02:53:05.586Z,10.9
2022-10-05T02:55:36.425Z,10.9
2022-10-05T02:58:07.557Z,10.8
2022-10-05T03:00:39.186Z,10.9
2022-10-05T03:03:10.314Z,10.9
2022-10-05T03:05:41.213Z,10.8
2022-10-05T03:08:12.148Z,10.7
2022-10-05T03:10:43.266Z,10.7
2022-10-05T03:13:14.191Z,10.5
2022-10-05T03:15:45.260Z,10.4
2022-10-05T03:18:14.811Z,10.5
2022-10-05T03:20:44.560Z,10.7
2022-10-05T03:23:15.060Z,10.6
2022-10-05T03:25:45.905Z,10.7
2022-10-05T03:28:18.011Z,10.7
2022-10-05T03:30:49.486Z,10.7
2022-10-05T03:33:21.150Z,10.6
2022-10-05T03:35:52.532Z,10.6
2022-10-05T03:38:24.222Z,10.6
2022-10-05T03:40:54.824Z,10.5
2022-10-05T03:43:26.043Z,10.6
2022-10-05T03:45:58.343Z,10.6
2022-10-05T03:48:30.016Z,10.6
2022-10-05T03:51:01.608Z,10.6
2022-10-05T03:53:32.853Z,10.6
2022-10-05T03:56:04.057Z,10.5
2022-10-05T03:58:35.166Z,10.4
2022-10-05T04:01:06.563Z,10.4
2022-10-05T04:03:37.162Z,10.5
2022-10-05T04:06:08.697Z,10.4
2022-10-05T04:08:41.282Z,10.4
2022-10-05T04:11:10.665Z,10.5
2022-10-05T04:13:42.447Z,10.4
2022-10-05T04:16:13.513Z,10.4
2022-10-05T04:18:44.708Z,10.4
2022-10-05T04:21:21.382Z,10.4
2022-10-05T04:23:48.162Z,10.4
2022-10-05T04:26:19.336Z,10.4
2022-10-05T04:28:50.359Z,10.3
2022-10-05T04:31:21.782Z,10.3
2022-10-05T04:33:52.375Z,10.3
2022-10-05T04:36:25.127Z,10.3
2022-10-05T04:38:56.463Z,10.3
2022-10-05T04:41:28.859Z,10.3
2022-10-05T04:43:59.854Z,10.2
2022-10-05T04:46:29.137Z,10.3
2022-10-05T04:49:02.215Z,10.2
2022-10-05T04:51:35.362Z,10.3
2022-10-05T04:54:06.194Z,10.3
2022-10-05T04:56:37.009Z,10.2
2022-10-05T04:59:08.944Z,10.3
2022-10-05T05:01:41.045Z,10.4
2022-10-05T05:04:12.084Z,10.5
2022-10-05T05:06:43.754Z,10.5
2022-10-05T05:09:14.338Z,10.7
2022-10-05T05:11:49.520Z,10.8
2022-10-05T05:14:21.669Z,10.9
2022-10-05T05:16:52.792Z,10.8
2022-10-05T05:21:55.043Z,11
2022-10-05T05:24:25.741Z,11
2022-10-05T05:26:56.598Z,11.1
2022-10-05T05:29:28.718Z,11.1
2022-10-05T05:31:59.839Z,11.2
2022-10-05T05:34:30.555Z,11.2
2022-10-05T05:37:01.628Z,11.1
2022-10-05T05:39:33.169Z,11.3
2022-10-05T05:42:04.864Z,11.3
2022-10-05T05:44:38.694Z,11.3
2022-10-05T05:47:08.080Z,11.5
2022-10-05T05:49:39.026Z,11.5
2022-10-05T05:52:09.962Z,11.6
2022-10-05T05:54:40.823Z,11.7
2022-10-05T05:57:09.706Z,11.8
2022-10-05T05:59:40.405Z,11.8
2022-10-05T06:02:11.076Z,11.9
2022-10-05T06:04:41.443Z,12
2022-10-05T06:07:10.478Z,12.2
2022-10-05T06:09:41.766Z,12.3
2022-10-05T06:12:13.446Z,12.3
2022-10-05T06:14:44.870Z,12.4
2022-10-05T06:17:16.232Z,12.5
2022-10-05T06:19:49.958Z,12.5
2022-10-05T06:22:21.099Z,12.7
2022-10-05T06:24:53.347Z,12.7
2022-10-05T06:27:24.703Z,12.9
2022-10-05T06:29:55.658Z,13
2022-10-05T06:32:25.901Z,13.1
2022-10-05T06:34:57.336Z,13.1
2022-10-05T06:37:30.696Z,13.2
2022-10-05T06:40:01.664Z,13.3
2022-10-05T06:42:33.394Z,13.4
2022-10-05T06:45:04.705Z,13.5
2022-10-05T06:47:36.166Z,13.5
2022-10-05T06:50:07.563Z,13.5
2022-10-05T06:52:38.451Z,13.6
2022-10-05T06:55:13.977Z,13.8
2022-10-05T06:57:40.885Z,13.7
2022-10-05T07:00:13.787Z,13.9
2022-10-05T07:02:44.754Z,14
2022-10-05T07:05:17.387Z,14
2022-10-05T07:07:47.808Z,14.1
2022-10-05T07:10:18.651Z,14.3
2022-10-05T07:12:50.151Z,14.3
2022-10-05T07:15:21.192Z,14.5
2022-10-05T07:17:52.459Z,14.3
2022-10-05T07:20:23.432Z,14.4
2022-10-05T07:22:53.613Z,14.6
2022-10-05T07:25:25.321Z,14.6
2022-10-05T07:27:56.333Z,14.6
2022-10-05T07:30:27.370Z,14.7
2022-10-05T07:32:58.555Z,14.7
2022-10-05T07:35:27.629Z,14.9
2022-10-05T07:37:58.545Z,15
2022-10-05T07:40:29.343Z,15
2022-10-05T07:42:59.896Z,15.2
2022-10-05T07:45:30.574Z,15.3
2022-10-05T07:48:03.664Z,15.1
2022-10-05T07:50:34.171Z,15.4
2022-10-05T07:53:06.337Z,15.5
2022-10-05T07:55:37.421Z,15.7
2022-10-05T07:58:07.819Z,15.9
2022-10-05T08:00:38.274Z,16
2022-10-05T08:03:08.919Z,16.1
2022-10-05T08:05:39.606Z,16.1
2022-10-05T08:08:11.006Z,16.2
2022-10-05T08:10:42.192Z,16.3
2022-10-05T08:13:13.467Z,16.5
2022-10-05T08:15:44.506Z,16.7
2022-10-05T08:18:15.365Z,16.8
2022-10-05T08:20:48.023Z,16.9
2022-10-05T08:23:20.052Z,17.1
2022-10-05T08:25:51.454Z,17.2
2022-10-05T08:28:22.275Z,17.2
2022-10-05T08:30:53.416Z,17.3
2022-10-05T08:33:26.450Z,17.3
2022-10-05T08:35:59.799Z,17.4
2022-10-05T08:38:30.559Z,17.4
2022-10-05T08:41:01.214Z,17.4
2022-10-05T08:43:35.257Z,17.6
2022-10-05T08:46:03.705Z,17.7
2022-10-05T08:48:36.400Z,17.7
2022-10-05T08:51:07.070Z,17.8
2022-10-05T08:53:37.852Z,17.8
2022-10-05T08:56:08.697Z,18
2022-10-05T08:58:39.439Z,18.1
2022-10-05T09:01:10.385Z,18
2022-10-05T09:03:39.465Z,18.1
2022-10-05T09:06:10.038Z,18.1
2022-10-05T09:08:40.222Z,18.2
2022-10-05T09:11:13.518Z,18.3
2022-10-05T09:13:44.535Z,18.4
2022-10-05T09:16:14.976Z,18.5
2022-10-05T09:18:45.468Z,18.5
2022-10-05T09:21:17.487Z,18.5
2022-10-05T09:23:48.323Z,18.8
2022-10-05T09:26:19.736Z,18.8
2022-10-05T09:28:52.459Z,18.8
2022-10-05T09:31:23.712Z,18.8
2022-10-05T09:33:54.628Z,19.1
2022-10-05T09:36:25.156Z,19
2022-10-05T09:38:55.880Z,19.1
2022-10-05T09:41:26.508Z,19.3
2022-10-05T09:43:59.503Z,19.4
2022-10-05T09:46:31.159Z,19.5
2022-10-05T09:49:02.113Z,19.7
2022-10-05T09:51:32.739Z,19.8
2022-10-05T09:54:05.310Z,19.9
2022-10-05T09:56:38.410Z,19.8
2022-10-05T09:59:09.340Z,19.8
2022-10-05T10:01:41.816Z,19.9
2022-10-05T10:04:13.472Z,20.1
2022-10-05T10:06:44.052Z,20.1
2022-10-05T10:09:15.376Z,20.1
2022-10-05T10:11:46.684Z,20.2
2022-10-05T10:14:15.327Z,20
2022-10-05T10:16:46.944Z,19.9
2022-10-05T10:19:17.669Z,19.9
2022-10-05T10:21:49.068Z,20
2022-10-05T10:24:19.946Z,20
2022-10-05T10:26:52.533Z,20.2
2022-10-05T10:29:23.667Z,20.3
2022-10-05T10:31:54.456Z,20.3
2022-10-05T10:34:24.907Z,20.4
2022-10-05T10:36:56.008Z,20.6
2022-10-05T10:39:26.908Z,20.7
2022-10-05T10:41:58.580Z,20.6
2022-10-05T10:44:28.372Z,20.7
2022-10-05T10:46:59.128Z,20.7
2022-10-05T10:49:29.784Z,20.9
2022-10-05T10:52:00.951Z,20.8
2022-10-05T10:54:31.480Z,20.8
2022-10-05T10:57:02.725Z,20.9
2022-10-05T10:59:33.693Z,20.9
2022-10-05T11:02:05.085Z,20.9
2022-10-05T11:04:37.833Z,21
2022-10-05T11:07:08.385Z,21.1
2022-10-05T11:09:39.221Z,21.1
2022-10-05T11:12:10.387Z,21.1
2022-10-05T11:14:42.269Z,20.9
2022-10-05T11:17:12.469Z,21
2022-10-05T11:19:59.492Z,21
2022-10-05T11:22:14.664Z,20.9
2022-10-05T11:24:45.293Z,21
2022-10-05T11:27:16.567Z,21
2022-10-05T11:29:46.829Z,21
2022-10-05T11:32:17.097Z,21
2022-10-05T11:34:47.871Z,21
2022-10-05T11:37:20.303Z,21.1
2022-10-05T11:39:51.641Z,21.1
2022-10-05T11:42:22.905Z,21.2
2022-10-05T11:44:53.835Z,21.2
2022-10-05T11:47:25.419Z,21.3
2022-10-05T11:49:56.203Z,21.4
2022-10-05T11:52:27.379Z,21.4
2022-10-05T11:55:10.169Z,21.4
2022-10-05T11:57:29.897Z,21.5
2022-10-05T11:59:59.210Z,21.5
2022-10-05T12:02:30.012Z,21.5
2022-10-05T12:05:01.007Z,21.6
2022-10-05T12:07:32.190Z,21.7
2022-10-05T12:10:03.441Z,21.6
2022-10-05T12:12:33.743Z,21.6
2022-10-05T12:15:04.316Z,21.6
2022-10-05T12:17:35.694Z,21.7
2022-10-05T12:20:06.559Z,21.7
2022-10-05T12:22:38.609Z,21.7
2022-10-05T12:25:13.273Z,21.8
2022-10-05T12:27:44.750Z,21.8
2022-10-05T12:30:15.695Z,21.8
2022-10-05T12:32:47.243Z,21.9
2022-10-05T12:35:36.461Z,21.9
2022-10-05T12:37:50.334Z,21.9
2022-10-05T12:40:21.455Z,21.8
2022-10-05T12:42:52.648Z,22
2022-10-05T12:45:29.392Z,22
2022-10-05T12:47:59.811Z,21.9
2022-10-05T12:50:30.684Z,21.7
2022-10-05T12:53:01.726Z,21.7
2022-10-05T12:55:33.826Z,21.7
2022-10-05T12:58:04.713Z,21.7
2022-10-05T13:00:35.983Z,21.8
2022-10-05T13:03:06.983Z,21.7
2022-10-05T13:05:38.028Z,21.8
2022-10-05T13:08:09.800Z,21.9
2022-10-05T13:10:40.684Z,21.9
2022-10-05T13:13:11.825Z,22
2022-10-05T13:15:42.681Z,22.1
2022-10-05T13:18:14.622Z,22.2
2022-10-05T13:20:45.679Z,22.3
2022-10-05T13:23:16.641Z,22.3
2022-10-05T13:25:48.137Z,22.2
2022-10-05T13:28:21.565Z,22.1
2022-10-05T13:30:52.264Z,22.2
2022-10-05T13:33:23.677Z,22.1
2022-10-05T13:35:54.878Z,22
2022-10-05T13:38:25.765Z,21.8
2022-10-05T13:40:56.739Z,21.6
2022-10-05T13:43:27.425Z,21.6
2022-10-05T13:45:58.754Z,21.5
2022-10-05T13:48:30.989Z,21.3
2022-10-05T13:51:01.340Z,21.3
2022-10-05T13:53:32.289Z,21.2
2022-10-05T13:56:03.266Z,20.9
2022-10-05T13:58:34.067Z,20.8
2022-10-05T14:01:04.904Z,20.7
2022-10-05T14:03:36.718Z,20.7
2022-10-05T14:06:07.796Z,20.8
2022-10-05T14:08:39.384Z,20.9
2022-10-05T14:11:11.796Z,20.9
2022-10-05T14:13:45.111Z,20.9
2022-10-05T14:16:19.510Z,20.8
2022-10-05T14:18:50.472Z,20.8
2022-10-05T14:21:21.871Z,20.8
2022-10-05T14:23:51.608Z,20.7
2022-10-05T14:26:23.932Z,20.6
2022-10-05T14:28:54.999Z,20.6
2022-10-05T14:31:27.217Z,20.5
2022-10-05T14:33:58.971Z,20.4
2022-10-05T14:36:30.306Z,20.3
2022-10-05T14:39:02.313Z,20.3
2022-10-05T14:41:33.460Z,20.3
2022-10-05T14:44:07.530Z,20.3
2022-10-05T14:46:40.528Z,20.2
2022-10-05T14:49:11.843Z,20.2
2022-10-05T14:51:43.545Z,20.1
2022-10-05T14:54:15.652Z,20.1
2022-10-05T14:56:49.423Z,20.1
2022-10-05T14:59:21.874Z,20
2022-10-05T15:01:53.015Z,20
2022-10-05T15:04:24.664Z,20
2022-10-05T15:06:56.325Z,19.8
2022-10-05T15:09:25.683Z,19.6
2022-10-05T15:11:57.440Z,19.6
2022-10-05T15:14:29.149Z,19.6
2022-10-05T15:17:01.166Z,19.6
2022-10-05T15:19:32.803Z,19.6
2022-10-05T15:22:04.393Z,19.5
2022-10-05T15:24:40.115Z,19.4
2022-10-05T15:27:07.746Z,19.3
2022-10-05T15:29:39.027Z,19.3
2022-10-05T15:32:10.025Z,19.3
2022-10-05T15:34:41.464Z,19.2
2022-10-05T15:37:13.749Z,19.2
2022-10-05T15:39:45.407Z,19.2
2022-10-05T15:42:17.526Z,19.2
2022-10-05T15:44:49.095Z,19
2022-10-05T15:47:21.605Z,19
2022-10-05T15:49:53.117Z,18.8
2022-10-05T15:52:24.312Z,18.7
2022-10-05T15:54:56.548Z,18.5
2022-10-05T15:57:29.575Z,18.5
2022-10-05T16:00:01.328Z,18.5
2022-10-05T16:02:31.533Z,18.5
2022-10-05T16:05:04.869Z,18.5
2022-10-05T16:07:35.433Z,18.5
2022-10-05T16:10:07.155Z,18.5
2022-10-05T16:12:38.379Z,18.5
2022-10-05T16:15:10.133Z,18.3
2022-10-05T16:17:42.099Z,18.2
2022-10-05T16:20:14.823Z,18.2
2022-10-05T16:22:47.447Z,18
2022-10-05T16:25:17.521Z,18
2022-10-05T16:27:48.657Z,18
2022-10-05T16:30:19.982Z,18
2022-10-05T16:32:52.818Z,18
2022-10-05T16:35:24.318Z,17.9
2022-10-05T16:37:55.960Z,17.7
2022-10-05T16:40:28.188Z,17.8
2022-10-05T16:42:59.307Z,17.7
2022-10-05T16:45:30.612Z,17.7
2022-10-05T16:48:02.396Z,17.7
2022-10-05T16:50:33.397Z,17.6
2022-10-05T16:53:06.589Z,17.7
2022-10-05T16:55:37.921Z,17.6
2022-10-05T16:58:09.509Z,17.5
2022-10-05T17:00:41.151Z,17.5
2022-10-05T17:03:12.547Z,17.5
2022-10-05T17:05:43.927Z,17.5
2022-10-05T17:08:16.555Z,17.6
2022-10-05T17:10:49.082Z,17.5
2022-10-05T17:13:20.299Z,17.6
2022-10-05T17:15:50.512Z,17.6
2022-10-05T17:18:22.225Z,17.5
2022-10-05T17:20:52.633Z,17.4
2022-10-05T17:23:24.732Z,17.4
2022-10-05T17:25:57.059Z,17.4
2022-10-05T17:28:29.900Z,17.3
2022-10-05T17:31:01.129Z,17.2
2022-10-05T17:33:33.682Z,17.1
2022-10-05T17:36:06.248Z,17.2
2022-10-05T17:38:37.532Z,17.2
2022-10-05T17:41:09.603Z,17.2
2022-10-05T17:43:41.047Z,17.1
2022-10-05T17:46:14.479Z,17.2
2022-10-05T17:48:45.893Z,17
2022-10-05T17:51:17.379Z,17.1
2022-10-05T17:53:48.223Z,17
2022-10-05T17:56:20.451Z,16.8
2022-10-05T17:58:52.541Z,16.9
2022-10-05T18:01:22.727Z,16.8
2022-10-05T18:03:55.311Z,16.8
2022-10-05T18:06:29.746Z,16.8
2022-10-05T18:09:01.554Z,16.8
2022-10-05T18:11:32.801Z,16.6
2022-10-05T18:14:02.515Z,16.8
2022-10-05T18:16:34.469Z,16.7
2022-10-05T18:19:06.262Z,16.6
2022-10-05T18:21:37.756Z,16.6
2022-10-05T18:24:10.069Z,16.6
2022-10-05T18:26:40.841Z,16.4
2022-10-05T18:29:14.147Z,16.5
2022-10-05T18:31:47.786Z,16.4
2022-10-05T18:34:20.091Z,16.3
2022-10-05T18:36:51.606Z,16.4
2022-10-05T18:39:23.008Z,16.5
2022-10-05T18:41:57.764Z,16.5
2022-10-05T18:44:29.696Z,16.3
2022-10-05T18:47:01.622Z,16.3
2022-10-05T18:49:34.153Z,16.2
2022-10-05T18:52:06.172Z,16.2
2022-10-05T18:54:38.302Z,16
2022-10-05T18:57:10.134Z,16
2022-10-05T18:59:41.724Z,16
2022-10-05T19:02:13.836Z,15.9
2022-10-05T19:04:45.495Z,16
2022-10-05T19:07:16.764Z,15.9
2022-10-05T19:09:48.355Z,16
2022-10-05T19:12:19.803Z,15.9
2022-10-05T19:14:51.760Z,15.9
2022-10-05T19:17:23.243Z,16.1
2022-10-05T19:19:54.901Z,16
2022-10-05T19:22:27.776Z,15.9
2022-10-05T19:25:00.811Z,15.9
2022-10-05T19:27:32.919Z,15.9
2022-10-05T19:30:04.213Z,16
2022-10-05T19:32:36.414Z,15.9
2022-10-05T19:35:09.513Z,15.9
2022-10-05T19:37:42.242Z,15.9
2022-10-05T19:40:13.806Z,15.9
2022-10-05T19:42:45.279Z,16
2022-10-05T19:45:17.019Z,15.9
2022-10-05T19:47:50.886Z,15.9
2022-10-05T19:50:22.656Z,15.9
2022-10-05T19:52:54.237Z,15.8
2022-10-05T19:55:25.832Z,15.7
2022-10-05T19:57:58.690Z,15.8
2022-10-05T20:00:30.436Z,15.6
2022-10-05T20:03:05.777Z,15.6
2022-10-05T20:05:38.140Z,15.5
2022-10-05T20:08:11.935Z,15.5
2022-10-05T20:10:47.352Z,15.5
2022-10-05T20:13:25.436Z,15.6
2022-10-05T20:15:57.818Z,15.6
2022-10-05T20:18:30.130Z,15.6
2022-10-05T20:21:03.940Z,15.6
2022-10-05T20:23:38.069Z,15.5
2022-10-05T20:26:09.700Z,15.5
2022-10-05T20:28:41.195Z,15.5
2022-10-05T20:31:14.059Z,15.5
2022-10-05T20:33:46.829Z,15.4
2022-10-05T20:36:19.077Z,15.4
2022-10-05T20:38:51.500Z,15.4
2022-10-05T20:41:26.272Z,15.3
2022-10-05T20:43:59.213Z,15.3
2022-10-05T20:46:33.326Z,15.4
2022-10-05T20:49:09.339Z,15.3
2022-10-05T20:51:40.315Z,15.3
2022-10-05T20:54:14.671Z,15.4
2022-10-05T20:56:46.636Z,15.3
2022-10-05T20:59:18.199Z,15.3
2022-10-05T21:01:49.509Z,15.1
2022-10-05T21:04:21.095Z,15.2
2022-10-05T21:06:54.439Z,15.1
2022-10-05T21:09:26.012Z,15
2022-10-05T21:11:57.202Z,15
2022-10-05T21:14:31.639Z,15
2022-10-05T21:17:09.184Z,15
2022-10-05T21:19:41.809Z,15
2022-10-05T21:22:14.571Z,15
2022-10-05T21:24:46.398Z,15
2022-10-05T21:27:19.682Z,15
2022-10-05T21:29:55.778Z,15
2022-10-05T21:32:28.335Z,15
2022-10-05T21:34:58.692Z,14.9
2022-10-05T21:37:29.991Z,14.9
2022-10-05T21:40:02.306Z,14.9
2022-10-05T21:42:35.812Z,15
2022-10-05T21:45:08.503Z,14.9
2022-10-05T21:47:43.015Z,14.8
2022-10-05T21:50:15.806Z,14.8
2022-10-05T21:52:51.041Z,14.8
2022-10-05T21:55:24.466Z,14.8
2022-10-05T21:57:56.898Z,14.7
2022-10-05T22:00:28.728Z,14.7
2022-10-05T22:03:02.433Z,14.6
2022-10-05T22:05:33.509Z,14.6
2022-10-05T22:08:05.676Z,14.6
2022-10-05T22:10:36.623Z,14.6
2022-10-05T22:13:07.723Z,14.5
2022-10-05T22:15:38.685Z,14.5
2022-10-05T22:18:12.677Z,14.5
2022-10-05T22:20:44.517Z,14.6
2022-10-05T22:23:15.704Z,14.5
2022-10-05T22:25:46.486Z,14.6
2022-10-05T22:28:15.849Z,14.6
2022-10-05T22:30:46.940Z,14.6
2022-10-05T22:33:20.231Z,14.6
2022-10-05T22:35:52.113Z,14.6
2022-10-05T22:38:23.586Z,14.6
2022-10-05T22:40:54.496Z,14.6
2022-10-05T22:43:28.757Z,14.5
2022-10-05T22:46:01.502Z,14.5
2022-10-05T22:48:32.116Z,14.4
2022-10-05T22:51:03.157Z,14.5
2022-10-05T22:53:33.888Z,14.4
2022-10-05T22:56:05.347Z,14.5
2022-10-05T22:58:36.122Z,14.4
2022-10-05T23:01:08.402Z,14.4
2022-10-05T23:03:38.831Z,14.4
2022-10-05T23:06:09.894Z,14.3
2022-10-05T23:08:41.331Z,14.3
2022-10-05T23:11:12.328Z,14.2
2022-10-05T23:13:42.285Z,14.1
2022-10-05T23:16:13.374Z,14.3
2022-10-05T23:18:44.032Z,14.3
2022-10-05T23:21:14.908Z,14.3
2022-10-05T23:23:45.653Z,14.2
2022-10-05T23:26:17.724Z,14.2
2022-10-05T23:28:48.839Z,14.2
2022-10-05T23:31:22.147Z,14.2
2022-10-05T23:33:53.391Z,14.2
2022-10-05T23:36:24.445Z,14.2
2022-10-05T23:38:55.105Z,14.1
2022-10-05T23:41:27.374Z,14.1
2022-10-05T23:44:00.836Z,14.1
2022-10-05T23:46:31.508Z,14.1
2022-10-05T23:49:03.117Z,14.1
2022-10-05T23:51:34.795Z,14.1
2022-10-05T23:54:05.919Z,14.1
2022-10-05T23:56:36.428Z,14.1
2022-10-05T23:59:08.505Z,14.1
